createdAt,value
2023-03-05T00:04:41.856Z,99853.91
2023-03-05T00:12:00.165Z,99850.22
2023-03-05T00:19:18.269Z,99853.88
2023-03-05T00:26:39.308Z,99840.09
2023-03-05T00:33:59.432Z,99832.09
2023-03-05T00:41:17.725Z,99825.25
2023-03-05T00:48:37.844Z,99806.41
2023-03-05T00:55:56.118Z,99799.22
2023-03-05T01:03:14.262Z,99795.53
2023-03-05T01:10:34.941Z,99787.59
2023-03-05T01:17:53.389Z,99785.06
2023-03-05T01:25:11.934Z,99775.31
2023-03-05T01:32:31.828Z,99767.94
2023-03-05T01:39:50.436Z,99758.72
2023-03-05T01:47:08.608Z,99752.22
2023-03-05T01:54:31.688Z,99752.75
2023-03-05T02:01:53.357Z,99744.03
2023-03-05T02:09:11.723Z,99747.91
2023-03-05T02:16:37.142Z,99740.72
2023-03-05T02:23:57.695Z,99745.53
2023-03-05T02:31:19.325Z,99739.34
2023-03-05T02:38:37.632Z,99731.53
2023-03-05T02:45:57.460Z,99716.06
2023-03-05T02:53:15.713Z,99715.63
2023-03-05T03:00:34.754Z,99710.28
2023-03-05T03:07:54.620Z,99698.06
2023-03-05T03:15:15.181Z,99693.38
2023-03-05T03:22:33.532Z,99688.44
2023-03-05T03:29:53.427Z,99681.69
2023-03-05T03:37:11.924Z,99673.13
2023-03-05T03:44:30.505Z,99659.25
2023-03-05T03:51:51.566Z,99636.28
2023-03-05T03:59:10.152Z,99634.72
2023-03-05T04:06:29.207Z,99627.69
2023-03-05T04:13:49.746Z,99615.47
2023-03-05T04:21:08.175Z,99613.81
2023-03-05T04:28:26.415Z,99597.78
2023-03-05T04:35:46.036Z,99587.72
2023-03-05T04:43:05.070Z,99582.34
2023-03-05T04:50:23.351Z,99577.72
2023-03-05T04:57:43.217Z,99574.69
2023-03-05T05:05:01.437Z,99561.56
2023-03-05T05:12:19.766Z,99562.31
2023-03-05T05:19:39.624Z,99571.81
2023-03-05T05:26:57.970Z,99560.28
2023-03-05T05:34:16.208Z,99566.38
2023-03-05T05:41:35.777Z,99547.84
2023-03-05T05:48:53.922Z,99558.69
2023-03-05T05:56:13.432Z,99547.47
2023-03-05T06:03:33.422Z,99541.31
2023-03-05T06:10:56.799Z,99533.13
2023-03-05T06:18:14.895Z,99525.72
2023-03-05T06:25:34.625Z,99525.22
2023-03-05T06:32:52.895Z,99516.47
2023-03-05T06:40:12.250Z,99503.94
2023-03-05T06:47:32.658Z,99503.84
2023-03-05T06:54:50.827Z,99507.03
2023-03-05T07:11:11.185Z,99507.13
2023-03-05T07:18:29.397Z,99511.13
2023-03-05T07:25:47.574Z,99497.91
2023-03-05T07:33:07.246Z,99501.19
2023-03-05T07:40:25.753Z,99500.28
2023-03-05T07:47:44.062Z,99497.81
2023-03-05T07:55:04.217Z,99489.03
2023-03-05T08:02:23.510Z,99500.22
2023-03-05T08:09:43.027Z,99494.81
2023-03-05T08:17:02.584Z,99498.09
2023-03-05T08:24:20.875Z,99494.69
2023-03-05T08:31:39.838Z,99499.28
2023-03-05T08:39:00.968Z,99502.34
2023-03-05T08:46:20.118Z,99506.63
2023-03-05T08:53:38.358Z,99493.50
2023-03-05T09:00:58.066Z,99487.53
2023-03-05T09:08:16.556Z,99495.41
2023-03-05T09:15:34.820Z,99495.75
2023-03-05T09:22:54.452Z,99492.81
2023-03-05T09:30:14.000Z,99495.28
2023-03-05T09:37:32.178Z,99491.38
2023-03-05T09:44:58.834Z,99494.06
2023-03-05T09:52:21.303Z,99493.63
2023-03-05T09:59:45.936Z,99486.44
2023-03-05T10:07:09.849Z,99479.75
2023-03-05T10:14:31.105Z,99468.97
2023-03-05T10:21:52.220Z,99459.16
2023-03-05T10:29:20.396Z,99446.31
2023-03-05T10:36:57.153Z,99449.16
2023-03-05T10:44:23.914Z,99437.13
2023-03-05T10:51:45.922Z,99422.63
2023-03-05T10:59:04.186Z,99421.59
2023-03-05T11:06:35.981Z,99406.50
2023-03-05T11:13:59.632Z,99419.69
2023-03-05T11:21:24.060Z,99404.72
2023-03-05T11:28:59.246Z,99391.53
2023-03-05T11:36:26.611Z,99384.78
2023-03-05T11:43:46.278Z,99365.72
2023-03-05T11:51:09.501Z,99356.34
2023-03-05T11:58:32.378Z,99343.81
2023-03-05T12:05:54.119Z,99336.72
2023-03-05T12:13:16.708Z,99336.69
2023-03-05T12:20:40.359Z,99346.13
2023-03-05T12:28:00.187Z,99342.97
2023-03-05T12:35:26.639Z,99342.44
2023-03-05T12:42:53.121Z,99330.16
2023-03-05T12:50:49.908Z,99315.28
2023-03-05T12:58:14.203Z,99324.13
2023-03-05T13:05:34.261Z,99316.81
2023-03-05T13:12:55.952Z,99319.66
2023-03-05T13:20:38.517Z,99318.13
2023-03-05T13:28:04.862Z,99316.53
2023-03-05T13:35:23.230Z,99311.88
2023-03-05T13:42:41.486Z,99317.88
2023-03-05T13:50:05.252Z,99336.88
2023-03-05T13:57:40.830Z,99332.69
2023-03-05T14:05:00.975Z,99333.81
2023-03-05T14:12:28.426Z,99321.69
2023-03-05T14:19:47.570Z,99311.28
2023-03-05T14:27:13.757Z,99304.94
2023-03-05T14:34:33.789Z,99312.94
2023-03-05T14:41:52.194Z,99306.16
2023-03-05T14:49:12.249Z,99303.50
2023-03-05T14:56:30.573Z,99308.28
2023-03-05T15:03:49.026Z,99300.41
2023-03-05T15:11:11.301Z,99289.19
2023-03-05T15:18:29.703Z,99304.66
2023-03-05T15:25:47.949Z,99303.94
2023-03-05T15:33:09.373Z,99301.78
2023-03-05T15:40:28.571Z,99289.03
2023-03-05T15:47:46.804Z,99293.75
2023-03-05T15:55:07.238Z,99292.28
2023-03-05T16:02:25.491Z,99293.47
2023-03-05T16:09:46.132Z,99288.50
2023-03-05T16:17:06.698Z,99290.88
2023-03-05T16:24:25.266Z,99288.78
2023-03-05T16:31:45.425Z,99290.44
2023-03-05T16:39:06.162Z,99296.88
2023-03-05T16:46:25.296Z,99290.44
2023-03-05T16:53:45.079Z,99284.84
2023-03-05T17:01:08.218Z,99287.34
2023-03-05T17:08:26.652Z,99298.34
2023-03-05T17:15:45.140Z,99309.88
2023-03-05T17:23:04.763Z,99322.06
2023-03-05T17:30:23.051Z,99315.00
2023-03-05T17:37:41.405Z,99313.78
2023-03-05T17:45:11.510Z,99314.31
2023-03-05T17:52:29.849Z,99313.03
2023-03-05T17:59:48.508Z,99297.41
2023-03-05T18:07:08.313Z,99278.69
2023-03-05T18:14:26.694Z,99268.63
2023-03-05T18:21:45.050Z,99284.22
2023-03-05T18:29:04.853Z,99282.91
2023-03-05T18:36:23.286Z,99281.69
2023-03-05T18:43:41.994Z,99273.22
2023-03-05T18:51:02.216Z,99266.22
2023-03-05T18:58:21.090Z,99269.75
2023-03-05T19:05:39.852Z,99271.34
2023-03-05T19:13:08.129Z,99270.31
2023-03-05T19:20:26.542Z,99266.91
2023-03-05T19:27:44.979Z,99260.69
2023-03-05T19:35:06.910Z,99261.72
2023-03-05T19:42:25.169Z,99258.09
2023-03-05T19:49:43.575Z,99255.81
2023-03-05T19:57:03.894Z,99256.75
2023-03-05T20:04:24.328Z,99256.75
2023-03-05T20:11:43.032Z,99251.47
2023-03-05T20:19:04.205Z,99260.34
2023-03-05T20:26:23.581Z,99256.94
2023-03-05T20:33:42.198Z,99251.34
2023-03-05T20:41:03.520Z,99248.69
2023-03-05T20:48:22.092Z,99247.31
2023-03-05T20:55:40.690Z,99247.88
2023-03-05T21:03:00.545Z,99246.94
2023-03-05T21:10:18.845Z,99247.66
2023-03-05T21:17:37.155Z,99243.16
2023-03-05T21:25:03.506Z,99246.44
2023-03-05T21:32:23.297Z,99228.66
2023-03-05T21:39:41.607Z,99230.13
2023-03-05T21:47:02.334Z,99225.56
2023-03-05T21:54:20.776Z,99217.81
2023-03-05T22:01:38.972Z,99211.69
2023-03-05T22:08:58.524Z,99219.94
2023-03-05T22:16:23.353Z,99207.31
2023-03-05T22:23:41.649Z,99196.06
2023-03-05T22:31:01.376Z,99187.09
2023-03-05T22:38:20.067Z,99186.22
2023-03-05T22:45:41.736Z,99192.91
2023-03-05T22:53:02.069Z,99184.56
2023-03-05T23:00:23.927Z,99172.47
2023-03-05T23:07:43.160Z,99177.63
2023-03-05T23:15:04.029Z,99165.81
2023-03-05T23:22:23.077Z,99175.75
2023-03-05T23:29:58.887Z,99173.28
2023-03-05T23:37:18.555Z,99173.06
2023-03-05T23:44:37.189Z,99171.78
2023-03-05T23:51:55.644Z,99158.94
2023-03-05T23:59:15.473Z,99157.00
